Time;durP1;ratioP1;P1;durP2;ratioP2;P2;SDS_P1;SDS_P2;PMS_P1;PMS_P2;Temp;Humidity;BMP_temperature;BMP_pressure;BME280_temperature;BME280_humidity;BME280_pressure;Samples;Min_cycle;Max_cycle;Signal;HPM_P1;HPM_P2
2023/07/28 00:01:28;;;;;;;30.13;12.15;;;18.60;99.90;;;;;;5134417;27;20507;-75
2023/07/28 00:03:54;;;;;;;27.75;11.73;;;18.70;99.90;;;;;;5120541;27;20023;-75
2023/07/28 00:06:20;;;;;;;25.95;11.07;;;18.70;99.90;;;;;;5138440;27;20048;-75
2023/07/28 00:08:45;;;;;;;31.83;11.63;;;18.70;99.90;;;;;;5141193;27;20481;-75
2023/07/28 00:11:13;;;;;;;27.77;12.25;;;18.70;99.90;;;;;;5134074;27;20069;-75
2023/07/28 00:13:39;;;;;;;33.65;12.05;;;18.70;99.90;;;;;;5133518;27;20235;-75
2023/07/28 00:16:05;;;;;;;27.08;11.65;;;18.70;99.90;;;;;;5132559;27;20103;-75
2023/07/28 00:18:31;;;;;;;27.67;12.00;;;18.70;99.90;;;;;;5132663;27;20022;-75
2023/07/28 00:20:57;;;;;;;27.88;11.55;;;18.70;99.90;;;;;;5114045;27;20480;-75
2023/07/28 00:23:22;;;;;;;25.70;11.18;;;18.70;99.90;;;;;;5132965;27;20489;-75
2023/07/28 00:25:48;;;;;;;28.85;11.25;;;18.60;99.90;;;;;;5131331;27;20071;-77
2023/07/28 00:28:14;;;;;;;26.80;11.90;;;18.70;99.90;;;;;;5134113;27;20076;-75
2023/07/28 00:30:40;;;;;;;25.20;11.57;;;18.70;99.90;;;;;;5133116;27;20546;-75
2023/07/28 00:33:05;;;;;;;29.35;11.68;;;18.70;99.90;;;;;;5132638;27;20433;-75
2023/07/28 00:35:31;;;;;;;27.48;11.73;;;18.70;99.90;;;;;;5128233;27;20023;-76
2023/07/28 00:37:57;;;;;;;29.38;12.68;;;18.70;99.90;;;;;;5123818;27;20015;-75
2023/07/28 00:40:23;;;;;;;29.27;12.65;;;18.70;99.90;;;;;;5132221;27;20064;-75
2023/07/28 00:42:49;;;;;;;29.02;12.65;;;18.70;99.90;;;;;;5132557;27;20410;-75
2023/07/28 00:45:14;;;;;;;32.13;13.45;;;18.70;99.90;;;;;;5132525;27;20094;-75
2023/07/28 00:47:40;;;;;;;33.95;13.27;;;18.70;99.90;;;;;;5119748;27;20185;-76
2023/07/28 00:50:08;;;;;;;32.67;12.63;;;18.70;99.90;;;;;;5132285;27;20038;-76
2023/07/28 00:52:34;;;;;;;31.90;12.63;;;18.70;99.90;;;;;;5096128;28;20090;-76
2023/07/28 00:55:01;;;;;;;29.02;12.70;;;18.70;99.90;;;;;;5028098;28;20034;-76
2023/07/28 00:57:26;;;;;;;32.72;13.13;;;18.70;99.90;;;;;;5028276;28;20029;-76
2023/07/28 00:59:53;;;;;;;31.95;12.80;;;18.70;99.90;;;;;;5096479;28;20022;-74
2023/07/28 01:02:19;;;;;;;34.35;13.20;;;18.70;99.90;;;;;;5028027;28;20026;-74
2023/07/28 01:04:45;;;;;;;30.60;12.50;;;18.70;99.90;;;;;;5028123;28;20041;-74
2023/07/28 01:07:22;;;;;;;29.40;12.40;;;18.70;99.90;;;;;;5028121;28;20029;-74
2023/07/28 01:10:11;;;;;;;31.17;11.88;;;18.80;99.90;;;;;;5022627;28;20014;-75
2023/07/28 01:12:37;;;;;;;28.70;11.80;;;18.80;99.90;;;;;;5027590;28;20067;-75
2023/07/28 01:15:03;;;;;;;29.88;12.77;;;18.70;99.90;;;;;;5096014;27;20482;-75
2023/07/28 01:17:29;;;;;;;31.25;12.00;;;18.80;99.90;;;;;;5021349;28;20066;-75
2023/07/28 01:19:55;;;;;;;30.00;12.48;;;18.70;99.90;;;;;;5091679;28;20022;-74
2023/07/28 01:22:26;;;;;;;32.42;12.43;;;18.80;99.90;;;;;;5027943;28;20033;-75
2023/07/28 01:25:14;;;;;;;35.30;13.55;;;18.80;99.90;;;;;;5028006;28;20013;-75
2023/07/28 01:27:42;;;;;;;32.13;11.80;;;18.80;99.90;;;;;;5028049;28;20021;-75
2023/07/28 01:30:09;;;;;;;31.45;12.35;;;18.70;99.90;;;;;;5027837;28;20351;-75
2023/07/28 01:32:36;;;;;;;32.28;12.48;;;18.80;99.90;;;;;;5028460;28;20132;-75
2023/07/28 01:35:03;;;;;;;35.80;11.85;;;18.80;99.90;;;;;;5028189;28;20338;-75
2023/07/28 01:37:29;;;;;;;30.77;12.73;;;18.80;99.90;;;;;;5027641;28;20018;-75
2023/07/28 01:39:57;;;;;;;32.40;11.48;;;18.80;99.90;;;;;;5028210;28;20036;-76
2023/07/28 01:42:23;;;;;;;33.17;11.30;;;18.80;99.90;;;;;;5029007;28;20034;-74
2023/07/28 01:44:48;;;;;;;32.45;11.45;;;18.80;99.90;;;;;;5092665;28;20028;-75
2023/07/28 01:47:14;;;;;;;30.90;11.60;;;18.80;99.90;;;;;;5027199;28;20022;-75
2023/07/28 01:49:40;;;;;;;32.40;10.95;;;18.80;99.90;;;;;;5022832;28;20053;-76
2023/07/28 01:52:06;;;;;;;32.35;11.15;;;18.80;99.90;;;;;;5094875;27;20051;-75
2023/07/28 01:54:31;;;;;;;34.75;11.75;;;18.80;99.90;;;;;;5136345;27;20547;-75
2023/07/28 01:56:57;;;;;;;35.42;11.73;;;18.90;99.90;;;;;;5135586;27;20360;-76
2023/07/28 01:59:22;;;;;;;31.55;11.18;;;18.90;99.90;;;;;;5135957;27;20047;-76
2023/07/28 02:01:48;;;;;;;33.33;11.40;;;18.90;99.90;;;;;;5135680;27;20064;-75
2023/07/28 02:04:15;;;;;;;36.47;11.55;;;18.90;99.90;;;;;;5130561;27;20026;-76
2023/07/28 02:06:41;;;;;;;35.95;12.00;;;18.90;99.90;;;;;;5131844;27;20026;-76
2023/07/28 02:09:07;;;;;;;37.03;12.00;;;18.90;99.90;;;;;;5116941;27;20023;-76
2023/07/28 02:11:32;;;;;;;32.10;11.57;;;18.90;99.90;;;;;;5135609;27;20088;-75
2023/07/28 02:13:58;;;;;;;32.95;12.48;;;18.90;99.90;;;;;;5135430;27;20449;-75
2023/07/28 02:16:24;;;;;;;30.88;11.90;;;18.90;99.90;;;;;;5135149;27;20019;-75
2023/07/28 02:18:49;;;;;;;43.90;12.70;;;18.90;99.90;;;;;;5135269;27;20015;-75
2023/07/28 02:21:15;;;;;;;38.95;13.05;;;18.90;99.90;;;;;;5135207;27;20019;-75
2023/07/28 02:23:41;;;;;;;35.72;11.57;;;18.90;99.90;;;;;;5135027;27;20425;-75
2023/07/28 02:26:07;;;;;;;35.50;12.20;;;18.90;99.90;;;;;;5134851;27;20027;-75
2023/07/28 02:28:32;;;;;;;38.33;12.93;;;18.90;99.90;;;;;;5134748;27;20015;-74
2023/07/28 02:30:58;;;;;;;34.17;12.77;;;18.90;99.90;;;;;;5134816;27;20011;-74
2023/07/28 02:33:23;;;;;;;41.00;13.50;;;18.90;99.90;;;;;;5134932;27;20035;-74
2023/07/28 02:35:49;;;;;;;38.25;12.68;;;18.90;99.90;;;;;;5134768;27;20430;-75
2023/07/28 02:38:15;;;;;;;36.47;13.30;;;18.90;99.90;;;;;;5134325;27;20030;-75
2023/07/28 02:40:40;;;;;;;37.33;13.07;;;18.90;99.90;;;;;;5128008;27;20058;-74
2023/07/28 02:43:06;;;;;;;32.35;12.27;;;18.90;99.90;;;;;;5127524;27;20081;-75
2023/07/28 02:45:32;;;;;;;39.90;12.63;;;18.90;99.90;;;;;;5134804;27;20043;-75
2023/07/28 02:47:57;;;;;;;38.92;12.35;;;18.90;99.90;;;;;;5134820;27;20422;-75
2023/07/28 02:50:23;;;;;;;32.50;12.55;;;18.90;99.90;;;;;;5116175;27;20019;-75
2023/07/28 02:52:49;;;;;;;36.00;12.95;;;18.90;99.90;;;;;;5135992;27;20051;-75
2023/07/28 02:55:14;;;;;;;34.97;12.27;;;18.90;99.90;;;;;;5138202;27;20069;-75
2023/07/28 02:57:40;;;;;;;35.22;13.38;;;18.90;99.90;;;;;;5139793;27;20042;-75
2023/07/28 03:00:10;;;;;;;39.72;13.52;;;18.90;99.90;;;;;;5150616;27;20030;-75
2023/07/28 03:02:36;;;;;;;37.22;12.80;;;18.90;99.90;;;;;;5146150;27;20404;-75
2023/07/28 03:05:01;;;;;;;41.85;12.93;;;18.90;99.90;;;;;;5126012;27;20050;-75
2023/07/28 03:07:27;;;;;;;41.53;13.75;;;18.90;99.90;;;;;;5134797;27;20442;-74
2023/07/28 03:09:52;;;;;;;44.92;13.85;;;18.90;99.90;;;;;;5133791;27;20080;-75
2023/07/28 03:12:18;;;;;;;37.67;13.50;;;18.90;99.90;;;;;;5134135;27;20103;-75
2023/07/28 03:14:44;;;;;;;43.47;14.07;;;18.90;99.90;;;;;;5133875;27;20025;-75
2023/07/28 03:17:09;;;;;;;36.35;13.00;;;18.90;99.90;;;;;;5134084;27;20022;-75
2023/07/28 03:19:35;;;;;;;38.63;13.25;;;18.90;99.90;;;;;;5130560;27;20012;-75
2023/07/28 03:22:01;;;;;;;40.92;13.70;;;18.90;99.90;;;;;;5125395;27;20413;-75
2023/07/28 03:24:26;;;;;;;38.13;13.05;;;18.90;99.90;;;;;;5130650;27;20054;-75
2023/07/28 03:26:52;;;;;;;36.42;13.85;;;18.90;99.90;;;;;;5134224;27;20070;-75
2023/07/28 03:29:18;;;;;;;35.92;12.95;;;18.90;99.90;;;;;;5133393;27;20015;-75
2023/07/28 03:31:44;;;;;;;35.35;14.35;;;18.90;99.90;;;;;;5133875;27;20090;-75
2023/07/28 03:34:09;;;;;;;39.58;13.70;;;18.90;99.90;;;;;;5133883;27;20046;-75
2023/07/28 03:36:35;;;;;;;47.53;14.27;;;18.80;99.90;;;;;;5119800;27;20446;-75
2023/07/28 03:39:00;;;;;;;38.67;14.25;;;18.90;99.90;;;;;;5122622;27;20151;-75
2023/07/28 03:41:26;;;;;;;44.80;14.93;;;18.90;99.90;;;;;;5133559;27;21406;-75
2023/07/28 03:43:52;;;;;;;37.00;14.13;;;18.90;99.90;;;;;;5133289;27;20521;-76
2023/07/28 03:46:18;;;;;;;41.42;14.88;;;18.90;99.90;;;;;;5125235;27;20011;-75
2023/07/28 03:48:43;;;;;;;42.75;15.35;;;18.90;99.90;;;;;;5121668;27;20046;-74
2023/07/28 03:51:09;;;;;;;38.03;14.75;;;18.90;99.90;;;;;;5133299;27;20047;-75
2023/07/28 03:53:35;;;;;;;35.53;13.93;;;18.90;99.90;;;;;;5132455;27;20026;-75
2023/07/28 03:56:01;;;;;;;49.65;15.38;;;18.90;99.90;;;;;;5133058;27;20018;-75
2023/07/28 03:58:27;;;;;;;40.38;14.90;;;18.90;99.90;;;;;;5133176;27;20030;-75
2023/07/28 04:00:53;;;;;;;39.17;14.15;;;18.90;99.90;;;;;;5114448;27;20011;-75
2023/07/28 04:03:19;;;;;;;38.50;14.52;;;18.90;99.90;;;;;;5133085;27;20104;-75
2023/07/28 04:05:45;;;;;;;39.90;13.70;;;18.90;99.90;;;;;;5132900;27;20018;-75
2023/07/28 04:08:11;;;;;;;38.67;13.15;;;18.90;99.90;;;;;;5127790;27;20015;-75
2023/07/28 04:10:36;;;;;;;37.42;13.27;;;18.90;99.90;;;;;;5132327;27;20506;-75
2023/07/28 04:13:02;;;;;;;35.58;13.57;;;19.00;99.90;;;;;;5114556;27;20031;-75
2023/07/28 04:15:27;;;;;;;38.67;13.73;;;19.00;99.90;;;;;;5132808;27;20019;-74
2023/07/28 04:17:53;;;;;;;36.95;13.57;;;19.00;99.90;;;;;;5132694;27;20045;-75
2023/07/28 04:20:19;;;;;;;38.47;13.20;;;19.00;99.90;;;;;;5133105;27;20027;-75
2023/07/28 04:22:44;;;;;;;35.53;13.05;;;19.00;99.90;;;;;;5132662;27;20015;-75
2023/07/28 04:25:10;;;;;;;32.58;12.90;;;19.00;99.90;;;;;;5132311;27;20023;-75
2023/07/28 04:27:36;;;;;;;37.42;13.15;;;18.90;99.90;;;;;;5132364;27;20114;-75
2023/07/28 04:30:01;;;;;;;34.42;13.07;;;18.90;99.90;;;;;;5132590;27;20022;-75
2023/07/28 04:32:27;;;;;;;37.50;13.40;;;19.00;99.90;;;;;;5131438;27;20035;-75
2023/07/28 04:34:53;;;;;;;39.47;13.32;;;18.90;99.90;;;;;;5132299;27;20016;-75
2023/07/28 04:37:19;;;;;;;35.08;12.50;;;18.90;99.90;;;;;;5125384;27;20027;-75
2023/07/28 04:39:44;;;;;;;43.58;13.75;;;18.90;99.90;;;;;;5127012;27;20434;-75
2023/07/28 04:42:10;;;;;;;35.95;12.35;;;19.00;99.90;;;;;;5132413;27;20433;-75
2023/07/28 04:44:39;;;;;;;32.30;12.63;;;19.00;99.90;;;;;;5132280;27;20019;-74
2023/07/28 04:47:05;;;;;;;42.28;13.73;;;19.00;99.90;;;;;;5123485;27;20013;-75
2023/07/28 04:49:31;;;;;;;32.15;12.95;;;19.00;99.90;;;;;;5132144;27;20395;-75
2023/07/28 04:51:56;;;;;;;33.65;13.35;;;19.00;99.90;;;;;;5132508;27;20100;-75
2023/07/28 04:54:22;;;;;;;39.80;13.02;;;19.00;99.90;;;;;;5132288;27;20023;-75
2023/07/28 04:56:49;;;;;;;38.20;13.15;;;19.00;99.90;;;;;;5132009;27;20461;-75
2023/07/28 04:59:15;;;;;;;33.20;12.27;;;19.00;99.90;;;;;;5131896;27;20018;-75
2023/07/28 05:01:41;;;;;;;29.85;12.75;;;19.00;99.90;;;;;;5132165;27;20181;-75
2023/07/28 05:04:07;;;;;;;37.35;12.95;;;19.00;99.90;;;;;;5132061;27;20425;-75
2023/07/28 05:06:32;;;;;;;31.95;12.75;;;19.10;99.90;;;;;;5132365;27;20026;-75
2023/07/28 05:08:58;;;;;;;34.92;13.00;;;19.00;99.90;;;;;;5131950;27;20087;-75
2023/07/28 05:11:23;;;;;;;32.58;11.90;;;19.10;99.90;;;;;;5124408;27;20059;-75
2023/07/28 05:13:49;;;;;;;32.38;12.77;;;19.00;99.90;;;;;;5132138;27;20030;-75
2023/07/28 05:16:15;;;;;;;35.15;12.65;;;19.10;99.90;;;;;;5125440;27;20020;-75
2023/07/28 05:18:42;;;;;;;32.03;12.40;;;19.10;99.90;;;;;;5132106;28;20020;-75
2023/07/28 05:21:08;;;;;;;38.80;12.55;;;19.10;99.90;;;;;;5132103;27;20015;-75
2023/07/28 05:23:34;;;;;;;28.42;11.75;;;19.10;99.90;;;;;;5099303;28;20019;-75
2023/07/28 05:25:59;;;;;;;27.27;11.65;;;19.10;99.90;;;;;;5127646;28;20023;-74
2023/07/28 05:28:25;;;;;;;34.03;12.23;;;19.10;99.90;;;;;;5131944;28;20020;-75
2023/07/28 05:30:51;;;;;;;27.35;12.05;;;19.10;99.90;;;;;;5131767;28;20019;-74
2023/07/28 05:33:16;;;;;;;30.85;11.77;;;19.10;99.90;;;;;;5130237;28;20070;-75
2023/07/28 05:35:42;;;;;;;32.53;12.32;;;19.20;99.90;;;;;;5101763;28;20544;-75
2023/07/28 05:38:08;;;;;;;27.95;11.13;;;19.20;99.90;;;;;;5100640;28;20103;-75
2023/07/28 05:40:33;;;;;;;27.33;11.63;;;19.20;99.90;;;;;;5131429;28;20343;-75
2023/07/28 05:42:59;;;;;;;26.98;11.25;;;19.20;99.90;;;;;;5131005;28;20023;-74
2023/07/28 05:45:25;;;;;;;33.85;11.85;;;19.20;99.90;;;;;;5130964;28;20026;-74
2023/07/28 05:47:50;;;;;;;29.85;11.57;;;19.20;99.90;;;;;;5131147;28;20019;-74
2023/07/28 05:50:16;;;;;;;26.95;11.65;;;19.20;99.90;;;;;;5131360;28;20020;-75
2023/07/28 05:52:42;;;;;;;28.50;11.88;;;19.20;99.90;;;;;;5140941;28;20051;-75
2023/07/28 05:55:08;;;;;;;31.65;11.95;;;19.20;99.90;;;;;;5143878;28;20050;-75
2023/07/28 05:57:34;;;;;;;32.55;10.95;;;19.20;99.90;;;;;;5136354;28;20018;-75
2023/07/28 05:59:59;;;;;;;29.95;11.85;;;19.20;99.90;;;;;;5120034;28;20016;-75
2023/07/28 06:02:25;;;;;;;30.30;12.00;;;19.20;99.90;;;;;;5128954;28;20470;-75
2023/07/28 06:04:52;;;;;;;25.17;11.63;;;19.20;99.90;;;;;;5131149;28;20015;-75
2023/07/28 06:07:17;;;;;;;24.27;12.23;;;19.20;99.90;;;;;;5130715;28;20011;-75
2023/07/28 06:09:43;;;;;;;31.10;12.13;;;19.30;99.90;;;;;;5131118;28;20020;-75
2023/07/28 06:12:08;;;;;;;27.48;11.57;;;19.30;99.90;;;;;;5130976;28;20469;-75
2023/07/28 06:14:34;;;;;;;25.42;11.70;;;19.30;99.90;;;;;;5125125;28;20016;-75
2023/07/28 06:17:00;;;;;;;22.77;10.98;;;19.30;99.90;;;;;;5129623;28;20357;-75
2023/07/28 06:19:25;;;;;;;26.98;10.80;;;19.30;99.90;;;;;;5130785;28;20011;-75
2023/07/28 06:21:51;;;;;;;21.02;10.95;;;19.30;99.90;;;;;;5130571;28;20022;-75
2023/07/28 06:24:17;;;;;;;27.58;10.85;;;19.30;99.90;;;;;;5130887;28;20436;-75
2023/07/28 06:26:43;;;;;;;19.67;10.27;;;19.30;99.90;;;;;;5130682;28;20068;-75
2023/07/28 06:29:08;;;;;;;22.35;10.88;;;19.40;99.90;;;;;;5130815;28;20019;-75
2023/07/28 06:31:34;;;;;;;24.45;10.68;;;19.30;99.90;;;;;;5130144;28;20020;-75
2023/07/28 06:33:59;;;;;;;25.67;10.25;;;19.30;99.90;;;;;;5120368;27;20388;-75
2023/07/28 06:36:25;;;;;;;26.33;10.38;;;19.30;99.90;;;;;;5128293;27;20057;-75
2023/07/28 06:38:52;;;;;;;19.70;9.98;;;19.30;99.90;;;;;;5128620;27;20015;-75
2023/07/28 06:41:18;;;;;;;22.48;9.98;;;19.40;99.90;;;;;;5118494;27;20022;-75
2023/07/28 06:43:44;;;;;;;23.17;9.70;;;19.40;99.90;;;;;;5134027;27;20478;-75
2023/07/28 06:46:09;;;;;;;22.52;10.35;;;19.40;99.90;;;;;;5134014;27;20034;-75
2023/07/28 06:48:35;;;;;;;19.67;9.75;;;19.40;99.90;;;;;;5134055;27;20020;-75
2023/07/28 06:51:00;;;;;;;23.48;9.45;;;19.40;99.90;;;;;;5133829;27;20055;-75
2023/07/28 06:53:26;;;;;;;19.15;9.40;;;19.40;99.90;;;;;;5133718;27;20023;-75
2023/07/28 06:55:52;;;;;;;19.00;9.70;;;19.50;99.90;;;;;;5133694;27;20052;-75
2023/07/28 06:58:18;;;;;;;22.15;9.60;;;19.50;99.90;;;;;;5133839;27;20027;-75
2023/07/28 07:00:43;;;;;;;17.30;9.00;;;19.50;99.90;;;;;;5133877;27;20019;-75
2023/07/28 07:03:10;;;;;;;18.60;8.57;;;19.50;99.90;;;;;;5133606;27;20408;-74
2023/07/28 07:05:36;;;;;;;20.98;8.90;;;19.60;99.90;;;;;;5133732;27;20384;-75
2023/07/28 07:08:02;;;;;;;19.35;8.73;;;19.60;99.90;;;;;;5133464;27;20012;-75
2023/07/28 07:10:27;;;;;;;21.00;8.55;;;19.60;99.90;;;;;;5133896;27;20023;-75
2023/07/28 07:12:53;;;;;;;18.77;8.38;;;19.60;99.90;;;;;;5133181;27;20038;-75
2023/07/28 07:15:18;;;;;;;13.40;8.60;;;19.70;99.90;;;;;;5133663;27;20027;-75
2023/07/28 07:17:44;;;;;;;14.57;8.30;;;19.70;99.90;;;;;;5133575;27;20041;-75
2023/07/28 07:20:10;;;;;;;16.73;8.75;;;19.70;99.90;;;;;;5133892;27;20027;-75
2023/07/28 07:22:36;;;;;;;16.13;8.30;;;19.70;99.90;;;;;;5131777;27;20030;-75
2023/07/28 07:25:03;;;;;;;14.80;8.93;;;19.80;99.90;;;;;;5133952;27;20011;-74
2023/07/28 07:27:29;;;;;;;16.20;7.70;;;19.80;99.90;;;;;;5133624;27;20023;-75
2023/07/28 07:29:55;;;;;;;15.52;7.55;;;19.90;99.90;;;;;;5133338;27;20107;-75
2023/07/28 07:32:21;;;;;;;13.43;7.70;;;19.90;99.90;;;;;;5132923;27;20034;-74
2023/07/28 07:34:46;;;;;;;12.82;7.18;;;20.00;99.90;;;;;;5133531;27;20094;-75
2023/07/28 07:37:12;;;;;;;13.18;6.35;;;20.00;99.90;;;;;;5133133;27;20023;-75
2023/07/28 07:39:38;;;;;;;11.88;6.53;;;20.00;99.90;;;;;;5114460;27;20051;-75
2023/07/28 07:42:05;;;;;;;13.07;6.32;;;20.00;99.90;;;;;;5133396;27;20478;-75
2023/07/28 07:44:30;;;;;;;12.32;6.38;;;20.00;99.90;;;;;;5133421;27;20042;-75
2023/07/28 07:46:58;;;;;;;13.85;6.32;;;20.10;99.90;;;;;;5133756;27;20012;-75
2023/07/28 07:49:24;;;;;;;13.55;6.45;;;20.10;99.90;;;;;;5134610;27;20023;-75
2023/07/28 07:51:50;;;;;;;10.45;5.88;;;20.20;99.90;;;;;;5133924;27;20389;-75
2023/07/28 07:54:18;;;;;;;15.88;6.30;;;20.20;99.90;;;;;;5120448;27;20027;-75
2023/07/28 07:56:44;;;;;;;14.18;5.50;;;20.30;99.90;;;;;;5121643;27;20103;-75
2023/07/28 07:59:10;;;;;;;16.10;6.15;;;20.30;99.90;;;;;;5134002;27;20480;-75
2023/07/28 08:01:36;;;;;;;12.75;5.90;;;20.40;99.90;;;;;;5133877;27;20023;-75
2023/07/28 08:04:02;;;;;;;18.23;6.65;;;20.50;99.90;;;;;;5116639;27;20413;-75
2023/07/28 08:06:28;;;;;;;17.17;6.63;;;20.60;99.90;;;;;;5128450;27;20027;-75
2023/07/28 08:08:56;;;;;;;9.88;5.32;;;20.70;99.90;;;;;;5133988;27;20015;-75
2023/07/28 08:11:22;;;;;;;11.45;5.18;;;20.70;99.90;;;;;;5133104;27;20058;-75
2023/07/28 08:13:48;;;;;;;11.50;5.50;;;20.70;99.90;;;;;;5126961;27;20058;-75
2023/07/28 08:16:14;;;;;;;12.43;5.70;;;20.70;99.90;;;;;;5133794;27;20023;-75
2023/07/28 08:18:39;;;;;;;13.18;6.30;;;20.70;99.90;;;;;;5125383;27;20081;-75
2023/07/28 08:21:05;;;;;;;16.25;6.00;;;20.70;99.90;;;;;;5126263;27;20314;-75
2023/07/28 08:23:31;;;;;;;18.55;6.35;;;20.70;99.90;;;;;;5114475;27;20056;-75
2023/07/28 08:25:56;;;;;;;15.95;5.55;;;20.70;99.90;;;;;;5132108;27;20478;-75
2023/07/28 08:28:22;;;;;;;13.05;5.90;;;20.70;99.90;;;;;;5132709;27;20383;-75
2023/07/28 08:30:57;;;;;;;14.35;6.00;;;20.70;99.90;;;;;;5132196;27;20517;-75
2023/07/28 08:33:23;;;;;;;13.43;6.40;;;20.70;99.90;;;;;;5132342;27;20031;-75
2023/07/28 08:35:49;;;;;;;17.15;6.28;;;20.80;99.90;;;;;;5132701;27;20023;-75
2023/07/28 08:38:14;;;;;;;13.10;5.93;;;20.80;99.90;;;;;;5120387;27;20030;-75
2023/07/28 08:40:40;;;;;;;16.35;6.80;;;20.90;99.90;;;;;;5133239;27;20011;-75
2023/07/28 08:43:06;;;;;;;18.90;6.53;;;20.90;99.90;;;;;;5135569;27;20050;-75
2023/07/28 08:45:32;;;;;;;12.57;6.18;;;20.90;99.90;;;;;;5140265;27;20007;-75
2023/07/28 08:47:58;;;;;;;14.05;6.30;;;20.90;99.90;;;;;;5145248;27;20019;-74
2023/07/28 08:50:24;;;;;;;17.75;6.93;;;20.90;99.90;;;;;;5133453;27;20015;-75
2023/07/28 08:52:50;;;;;;;14.13;6.70;;;20.90;99.90;;;;;;5131731;27;20396;-75
2023/07/28 08:55:16;;;;;;;15.85;6.53;;;21.00;99.90;;;;;;5131729;27;20046;-75
2023/07/28 08:57:43;;;;;;;14.32;6.68;;;21.00;99.90;;;;;;5131502;27;20039;-75
2023/07/28 09:00:13;;;;;;;12.73;6.38;;;21.10;99.90;;;;;;5131513;27;20097;-75
2023/07/28 09:02:40;;;;;;;16.13;6.50;;;21.20;99.90;;;;;;5121496;27;20338;-75
2023/07/28 09:05:05;;;;;;;12.27;6.35;;;21.30;99.90;;;;;;5131725;27;20105;-75
2023/07/28 09:07:36;;;;;;;15.98;6.38;;;21.30;99.90;;;;;;5131568;27;20098;-75
2023/07/28 09:10:02;;;;;;;12.85;6.40;;;21.40;99.90;;;;;;5131340;27;20047;-75
2023/07/28 09:12:31;;;;;;;16.40;6.40;;;21.50;99.90;;;;;;5125745;27;20269;-75
2023/07/28 09:14:57;;;;;;;15.32;6.90;;;21.50;99.90;;;;;;5112633;28;20027;-75
2023/07/28 09:17:23;;;;;;;14.00;6.88;;;21.60;99.90;;;;;;5131515;27;20019;-75
2023/07/28 09:19:52;;;;;;;15.95;6.72;;;21.60;99.90;;;;;;5131221;28;20045;-75
2023/07/28 09:22:19;;;;;;;13.60;6.13;;;21.50;99.90;;;;;;5129986;28;20123;-75
2023/07/28 09:24:44;;;;;;;16.88;6.07;;;21.50;99.90;;;;;;5131779;28;20057;-75
2023/07/28 09:27:20;;;;;;;17.25;6.43;;;21.50;99.90;;;;;;5135051;28;20414;-75
2023/07/28 09:29:50;;;;;;;15.82;6.35;;;21.50;99.90;;;;;;5102717;28;20023;-75
2023/07/28 09:32:25;;;;;;;16.38;6.68;;;21.40;99.90;;;;;;5121835;28;20380;-75
2023/07/28 09:35:12;;;;;;;13.68;5.63;;;21.40;99.90;;;;;;5117860;28;20484;-75
2023/07/28 09:37:43;;;;;;;11.98;6.20;;;21.40;99.90;;;;;;5131621;28;20027;-75
2023/07/28 09:40:11;;;;;;;15.52;6.50;;;21.30;99.90;;;;;;5131784;28;20082;-75
2023/07/28 09:42:40;;;;;;;14.23;6.15;;;21.30;99.90;;;;;;5131773;28;20051;-75
2023/07/28 09:45:08;;;;;;;15.57;6.47;;;21.30;99.90;;;;;;5121999;28;20039;-75
2023/07/28 09:47:37;;;;;;;13.88;6.40;;;21.20;99.90;;;;;;5124211;28;20050;-75
2023/07/28 09:50:08;;;;;;;15.32;6.18;;;21.20;99.90;;;;;;5131548;28;20106;-75
2023/07/28 09:52:42;;;;;;;13.43;6.13;;;21.30;99.90;;;;;;5129042;28;20047;-75
2023/07/28 09:55:11;;;;;;;12.05;6.03;;;21.30;99.90;;;;;;5131632;28;20079;-75
2023/07/28 09:57:39;;;;;;;16.67;6.15;;;21.30;99.90;;;;;;5113155;28;20490;-75
2023/07/28 10:00:08;;;;;;;13.85;5.20;;;21.30;99.90;;;;;;5131171;28;20019;-75
2023/07/28 10:02:35;;;;;;;17.05;5.68;;;21.30;99.90;;;;;;5131251;28;20050;-75
2023/07/28 10:05:02;;;;;;;14.20;5.70;;;21.30;99.90;;;;;;5131134;28;20026;-75
2023/07/28 10:07:28;;;;;;;12.52;5.20;;;21.40;99.90;;;;;;5131838;27;20011;-75
2023/07/28 10:09:54;;;;;;;14.13;5.53;;;21.40;99.90;;;;;;5134590;27;20545;-75
2023/07/28 10:12:27;;;;;;;16.75;5.88;;;21.40;99.90;;;;;;5135411;27;20027;-75
2023/07/28 10:15:04;;;;;;;14.40;5.57;;;21.50;99.90;;;;;;5138297;27;20331;-75
2023/07/28 10:17:34;;;;;;;13.85;5.18;;;21.50;99.90;;;;;;5136912;27;20027;-75
2023/07/28 10:20:27;;;;;;;11.50;4.90;;;21.50;99.90;;;;;;5135756;27;20011;-75
2023/07/28 10:22:53;;;;;;;12.18;5.47;;;21.50;99.90;;;;;;5136336;27;20023;-75
2023/07/28 10:25:25;;;;;;;11.48;4.75;;;21.60;99.90;;;;;;5135713;27;20030;-75
2023/07/28 10:27:52;;;;;;;8.32;4.90;;;21.70;99.90;;;;;;5121880;27;20051;-75
2023/07/28 10:30:18;;;;;;;10.13;4.70;;;21.70;99.90;;;;;;5135478;27;20023;-75
2023/07/28 10:32:45;;;;;;;11.07;4.88;;;21.80;99.90;;;;;;5133712;27;20171;-75
2023/07/28 10:35:17;;;;;;;10.93;4.63;;;21.80;99.90;;;;;;5132615;27;20054;-75
2023/07/28 10:37:48;;;;;;;12.80;5.70;;;21.80;99.90;;;;;;5135202;27;20040;-75
2023/07/28 10:40:31;;;;;;;11.95;5.38;;;21.80;99.90;;;;;;5113610;27;20413;-76
2023/07/28 10:42:57;;;;;;;8.05;4.85;;;21.80;99.90;;;;;;5134842;27;20487;-75
2023/07/28 10:45:27;;;;;;;9.57;4.93;;;21.90;99.90;;;;;;5134875;27;20026;-75
2023/07/28 10:47:56;;;;;;;10.95;4.80;;;22.10;99.90;;;;;;5131853;27;20494;-75
2023/07/28 10:50:23;;;;;;;10.43;5.30;;;22.20;99.90;;;;;;5133316;27;20031;-75
2023/07/28 10:52:49;;;;;;;8.40;4.55;;;22.40;99.90;;;;;;5134213;27;20518;-75
2023/07/28 10:55:23;;;;;;;9.95;4.03;;;22.50;99.90;;;;;;5134955;27;20493;-75
2023/07/28 10:57:50;;;;;;;8.55;3.70;;;22.60;99.90;;;;;;5127767;27;20107;-75
2023/07/28 11:00:18;;;;;;;8.57;3.60;;;22.60;99.90;;;;;;5131365;27;20463;-75
2023/07/28 11:02:45;;;;;;;8.88;3.95;;;22.60;99.90;;;;;;5124307;27;20015;-75
2023/07/28 11:05:14;;;;;;;10.57;4.03;;;22.70;99.90;;;;;;5125078;27;20030;-75
2023/07/28 11:07:43;;;;;;;7.57;3.92;;;22.80;99.90;;;;;;5133750;27;20016;-75
2023/07/28 11:10:11;;;;;;;10.80;3.90;;;22.90;99.90;;;;;;5133979;27;20033;-76
2023/07/28 11:12:41;;;;;;;7.03;3.70;;;22.90;99.90;;;;;;5127848;27;20023;-76
2023/07/28 11:15:12;;;;;;;9.40;3.80;;;22.80;99.90;;;;;;5134285;27;20363;-75
2023/07/28 11:17:41;;;;;;;8.68;3.50;;;22.80;99.90;;;;;;5130919;27;20465;-75
2023/07/28 11:20:30;;;;;;;6.07;3.40;;;22.70;99.90;;;;;;5130352;27;20023;-75
2023/07/28 11:23:00;;;;;;;5.68;3.25;;;22.70;99.90;;;;;;5129161;27;20031;-75
2023/07/28 11:25:27;;;;;;;6.82;3.70;;;22.60;99.90;;;;;;5114025;27;20058;-75
2023/07/28 11:27:54;;;;;;;5.20;3.53;;;22.70;99.90;;;;;;5113801;27;20018;-75
2023/07/28 11:30:21;;;;;;;7.65;3.60;;;22.80;99.90;;;;;;5115597;27;20015;-75
2023/07/28 11:32:49;;;;;;;8.43;4.03;;;22.90;99.90;;;;;;5131118;27;20031;-75
2023/07/28 11:35:17;;;;;;;6.55;3.90;;;23.10;99.90;;;;;;5121594;27;20048;-75
2023/07/28 11:37:45;;;;;;;8.07;4.35;;;23.20;99.90;;;;;;5145473;27;20024;-75
2023/07/28 11:40:12;;;;;;;8.88;4.00;;;23.20;99.90;;;;;;5146260;27;20024;-75
2023/07/28 11:42:40;;;;;;;10.27;4.68;;;23.20;99.90;;;;;;5146026;27;20027;-75
2023/07/28 11:45:08;;;;;;;8.07;4.65;;;23.20;99.90;;;;;;5135716;27;20099;-75
2023/07/28 11:47:33;;;;;;;8.73;4.80;;;23.20;99.90;;;;;;5131718;27;20012;-75
2023/07/28 11:50:00;;;;;;;11.55;5.40;;;23.10;99.90;;;;;;5131965;27;20033;-75
2023/07/28 11:52:36;;;;;;;9.43;4.93;;;23.00;99.90;;;;;;5132680;27;20031;-76
2023/07/28 11:55:05;;;;;;;10.30;5.07;;;23.10;99.90;;;;;;5133385;27;20019;-75
2023/07/28 11:57:32;;;;;;;10.82;4.78;;;23.00;99.90;;;;;;5133112;27;20116;-75
2023/07/28 11:59:58;;;;;;;10.60;4.90;;;23.00;99.90;;;;;;5133258;27;20015;-75
2023/07/28 12:02:29;;;;;;;11.63;4.88;;;23.00;99.90;;;;;;5114275;27;20455;-75
2023/07/28 12:04:57;;;;;;;10.95;4.70;;;23.00;99.90;;;;;;5132894;27;20023;-75
2023/07/28 12:07:32;;;;;;;11.18;4.43;;;23.20;99.90;;;;;;5114397;27;20471;-75
2023/07/28 12:10:08;;;;;;;11.77;5.00;;;23.30;99.90;;;;;;5132736;27;20023;-75
2023/07/28 12:12:43;;;;;;;9.85;5.38;;;23.50;99.90;;;;;;5132313;27;20467;-75
2023/07/28 12:15:18;;;;;;;9.68;5.03;;;23.70;99.90;;;;;;5132328;27;20023;-75
2023/07/28 12:18:15;;;;;;;11.07;5.60;;;23.80;99.90;;;;;;5132296;27;20023;-75
2023/07/28 12:20:46;;;;;;;13.80;6.68;;;23.80;99.90;;;;;;5132656;27;20027;-75
2023/07/28 12:23:16;;;;;;;13.57;6.38;;;23.80;99.90;;;;;;5131265;27;20024;-75
2023/07/28 12:25:42;;;;;;;11.55;6.22;;;23.70;99.90;;;;;;5132950;27;20514;-75
2023/07/28 12:28:08;;;;;;;11.70;5.78;;;23.70;99.90;;;;;;5132104;27;20042;-75
2023/07/28 12:30:34;;;;;;;12.07;6.00;;;23.60;99.90;;;;;;5120939;27;20047;-75
2023/07/28 12:33:00;;;;;;;11.25;5.30;;;23.60;99.90;;;;;;5121391;27;20066;-75